Time;durP1;ratioP1;P1;durP2;ratioP2;P2;SDS_P1;SDS_P2;PMS_P1;PMS_P2;Temp;Humidity;BMP_temperature;BMP_pressure;BME280_temperature;BME280_humidity;BME280_pressure;Samples;Min_cycle;Max_cycle;Signal;HPM_P1;HPM_P2
2021/03/25 00:00:57;;;;;;;24.10;16.10;;;;;;;;;;5021914;28;20239;-75
2021/03/25 00:03:23;;;;;;;33.25;18.70;;;;;;;;;;5043616;28;20716;-74
2021/03/25 00:05:51;;;;;;;27.52;16.08;;;;;;;;;;5060518;28;20181;-73
2021/03/25 00:08:18;;;;;;;28.55;17.38;;;;;;;;;;5069767;28;20173;-75
2021/03/25 00:10:45;;;;;;;35.08;17.73;;;;;;;;;;5060150;28;20192;-74
2021/03/25 00:13:11;;;;;;;33.80;19.35;;;;;;;;;;5046264;28;20193;-75
2021/03/25 00:15:38;;;;;;;36.17;21.00;;;;;;;;;;5040947;28;20338;-75
2021/03/25 00:18:04;;;;;;;30.90;17.98;;;;;;;;;;5042058;28;20241;-74
2021/03/25 00:20:30;;;;;;;25.60;17.95;;;;;;;;;;5050199;28;20185;-74
2021/03/25 00:22:57;;;;;;;27.67;17.65;;;;;;;;;;5058750;28;20192;-74
2021/03/25 00:25:26;;;;;;;31.40;17.42;;;;;;;;;;5054384;28;20178;-74
2021/03/25 00:27:52;;;;;;;34.80;18.75;;;;;;;;;;5051521;28;20186;-74
2021/03/25 00:30:20;;;;;;;37.08;18.42;;;;;;;;;;5059085;28;20282;-77
2021/03/25 00:32:46;;;;;;;30.50;18.17;;;;;;;;;;5049792;28;20870;-74
2021/03/25 00:35:13;;;;;;;26.53;20.03;;;;;;;;;;5058469;28;20185;-73
2021/03/25 00:37:39;;;;;;;29.90;17.17;;;;;;;;;;5058098;28;20926;-75
2021/03/25 00:40:06;;;;;;;28.42;17.75;;;;;;;;;;5050825;28;20185;-74
2021/03/25 00:42:32;;;;;;;26.83;18.08;;;;;;;;;;5045571;28;20228;-74
2021/03/25 00:44:59;;;;;;;31.95;17.85;;;;;;;;;;5064442;28;20703;-73
2021/03/25 00:47:24;;;;;;;30.38;19.10;;;;;;;;;;5061704;28;20209;-73
2021/03/25 00:49:50;;;;;;;23.90;16.50;;;;;;;;;;5056840;28;20251;-74
2021/03/25 00:52:17;;;;;;;30.43;17.90;;;;;;;;;;5060471;28;20424;-73
2021/03/25 00:54:43;;;;;;;27.95;15.82;;;;;;;;;;5052251;28;20424;-74
2021/03/25 00:57:08;;;;;;;26.20;16.03;;;;;;;;;;5053537;28;20686;-74
2021/03/25 00:59:34;;;;;;;24.67;15.40;;;;;;;;;;5071138;28;20490;-73
2021/03/25 01:02:01;;;;;;;27.50;16.35;;;;;;;;;;5060215;28;20443;-73
2021/03/25 01:04:27;;;;;;;29.02;16.30;;;;;;;;;;5053042;28;20216;-75
2021/03/25 01:06:53;;;;;;;29.88;17.25;;;;;;;;;;5064606;28;20183;-75
2021/03/25 01:09:24;;;;;;;28.93;16.77;;;;;;;;;;5072462;28;20263;-73
2021/03/25 01:11:51;;;;;;;28.05;16.75;;;;;;;;;;5050392;28;20450;-74
2021/03/25 01:14:20;;;;;;;32.75;17.80;;;;;;;;;;5063878;28;20230;-73
2021/03/25 01:16:46;;;;;;;28.02;17.70;;;;;;;;;;5064092;28;20235;-74
2021/03/25 01:19:20;;;;;;;33.60;18.88;;;;;;;;;;5057121;28;20232;-73
2021/03/25 01:21:46;;;;;;;34.30;19.50;;;;;;;;;;5047554;28;20571;-74
2021/03/25 01:24:12;;;;;;;35.70;20.38;;;;;;;;;;5062987;28;20215;-75
2021/03/25 01:26:38;;;;;;;30.83;19.80;;;;;;;;;;5064066;28;20178;-74
2021/03/25 01:29:05;;;;;;;30.70;17.13;;;;;;;;;;5055351;28;20648;-74
2021/03/25 01:31:31;;;;;;;39.78;19.67;;;;;;;;;;5042420;28;20228;-73
2021/03/25 01:33:58;;;;;;;32.97;17.83;;;;;;;;;;5050574;28;20231;-74
2021/03/25 01:36:24;;;;;;;30.55;15.95;;;;;;;;;;5060626;28;20174;-74
2021/03/25 01:38:50;;;;;;;24.20;14.70;;;;;;;;;;5055063;28;20202;-74
2021/03/25 01:41:16;;;;;;;25.20;17.00;;;;;;;;;;5048691;28;20680;-73
2021/03/25 01:43:43;;;;;;;21.65;16.05;;;;;;;;;;5061273;28;20408;-74
2021/03/25 01:46:28;;;;;;;29.48;18.60;;;;;;;;;;5058161;28;20181;-74
2021/03/25 01:48:57;;;;;;;32.05;20.15;;;;;;;;;;5042141;28;20766;-73
2021/03/25 01:51:23;;;;;;;36.53;22.88;;;;;;;;;;5060260;28;20204;-76
2021/03/25 01:53:49;;;;;;;32.63;20.20;;;;;;;;;;5052976;28;20711;-74
2021/03/25 01:56:18;;;;;;;33.10;20.50;;;;;;;;;;5033745;28;20467;-74
2021/03/25 01:58:49;;;;;;;34.97;21.45;;;;;;;;;;5051048;28;21001;-73
2021/03/25 02:01:42;;;;;;;30.80;19.25;;;;;;;;;;5055591;28;20229;-74
2021/03/25 02:04:22;;;;;;;34.83;20.85;;;;;;;;;;5048524;28;20261;-74
2021/03/25 02:07:07;;;;;;;35.85;19.67;;;;;;;;;;5047893;28;20527;-73
2021/03/25 02:09:38;;;;;;;40.42;19.00;;;;;;;;;;5070210;28;20263;-75
2021/03/25 02:12:22;;;;;;;32.05;19.30;;;;;;;;;;5049489;28;20276;-73
2021/03/25 02:14:54;;;;;;;29.77;18.40;;;;;;;;;;5050694;28;20667;-73
2021/03/25 02:17:28;;;;;;;30.08;20.20;;;;;;;;;;5055085;28;20603;-73
2021/03/25 02:20:07;;;;;;;30.33;18.55;;;;;;;;;;5059265;28;20185;-73
2021/03/25 02:22:52;;;;;;;29.90;19.20;;;;;;;;;;5047270;28;20208;-74
2021/03/25 02:25:21;;;;;;;27.23;16.95;;;;;;;;;;5048095;28;20719;-74
2021/03/25 02:27:47;;;;;;;32.33;17.95;;;;;;;;;;5066579;28;20187;-74
2021/03/25 02:30:15;;;;;;;25.37;18.27;;;;;;;;;;5058673;28;20260;-73
2021/03/25 02:32:52;;;;;;;26.45;17.30;;;;;;;;;;5062099;28;20899;-75
2021/03/25 02:35:29;;;;;;;25.90;17.88;;;;;;;;;;5058593;28;20539;-73
2021/03/25 02:38:15;;;;;;;30.40;18.15;;;;;;;;;;5061697;28;20319;-74
2021/03/25 02:40:47;;;;;;;30.30;18.60;;;;;;;;;;5037087;28;20723;-74
2021/03/25 02:43:19;;;;;;;30.33;19.75;;;;;;;;;;5059397;28;20584;-74
2021/03/25 02:45:49;;;;;;;28.88;18.45;;;;;;;;;;5059935;28;20545;-73
2021/03/25 02:48:17;;;;;;;35.03;18.58;;;;;;;;;;5058151;28;20213;-73
2021/03/25 02:50:46;;;;;;;30.10;19.98;;;;;;;;;;5061152;28;20612;-74
2021/03/25 02:53:23;;;;;;;32.80;19.55;;;;;;;;;;5046967;28;20173;-74
2021/03/25 02:55:50;;;;;;;24.20;17.73;;;;;;;;;;5061168;28;20230;-73
2021/03/25 02:58:19;;;;;;;29.58;17.90;;;;;;;;;;5054743;28;20759;-74
2021/03/25 03:01:11;;;;;;;28.20;16.23;;;;;;;;;;5057048;28;20759;-73
2021/03/25 03:03:43;;;;;;;27.60;18.48;;;;;;;;;;5036868;28;20196;-74
2021/03/25 03:06:14;;;;;;;24.85;16.27;;;;;;;;;;5061278;28;20253;-73
2021/03/25 03:08:42;;;;;;;27.25;17.77;;;;;;;;;;5065984;28;20185;-75
2021/03/25 03:11:11;;;;;;;26.80;16.33;;;;;;;;;;5053417;28;20588;-73
2021/03/25 03:13:42;;;;;;;33.05;18.20;;;;;;;;;;5062046;28;20233;-74
2021/03/25 03:16:12;;;;;;;29.23;17.50;;;;;;;;;;5055279;28;20256;-74
2021/03/25 03:18:46;;;;;;;26.17;15.48;;;;;;;;;;5049170;28;20680;-73
2021/03/25 03:21:31;;;;;;;25.58;19.00;;;;;;;;;;5062353;28;20193;-74
2021/03/25 03:23:57;;;;;;;30.35;17.13;;;;;;;;;;5048877;28;20242;-74
2021/03/25 03:26:25;;;;;;;24.20;17.23;;;;;;;;;;5035305;28;20177;-73
2021/03/25 03:28:52;;;;;;;31.83;18.13;;;;;;;;;;5060320;28;20431;-73
2021/03/25 03:31:28;;;;;;;29.38;19.98;;;;;;;;;;5051146;28;20667;-74
2021/03/25 03:34:00;;;;;;;31.38;19.20;;;;;;;;;;5050238;28;20519;-73
2021/03/25 03:36:26;;;;;;;31.80;19.55;;;;;;;;;;5063205;28;20204;-74
2021/03/25 03:38:55;;;;;;;32.13;19.50;;;;;;;;;;5065165;28;20204;-74
2021/03/25 03:41:24;;;;;;;21.98;18.15;;;;;;;;;;5054127;28;20576;-73
2021/03/25 03:43:50;;;;;;;34.30;17.55;;;;;;;;;;5056574;28;20667;-74
2021/03/25 03:46:19;;;;;;;37.95;19.63;;;;;;;;;;5066375;28;20200;-73
2021/03/25 03:48:50;;;;;;;31.55;18.58;;;;;;;;;;5056511;28;20243;-73
2021/03/25 03:51:28;;;;;;;23.30;16.42;;;;;;;;;;5061352;28;20246;-73
2021/03/25 03:53:55;;;;;;;25.02;16.05;;;;;;;;;;5060248;28;20243;-75
2021/03/25 03:56:29;;;;;;;23.35;16.05;;;;;;;;;;5053581;28;20173;-73
2021/03/25 03:58:56;;;;;;;25.83;16.80;;;;;;;;;;5040563;28;20221;-73
2021/03/25 04:01:43;;;;;;;26.90;17.08;;;;;;;;;;5047672;28;20197;-73
2021/03/25 04:04:13;;;;;;;23.38;16.10;;;;;;;;;;5055681;28;20177;-73
2021/03/25 04:06:41;;;;;;;24.52;15.98;;;;;;;;;;5067525;28;20207;-74
2021/03/25 04:09:09;;;;;;;25.67;17.48;;;;;;;;;;5053337;28;20169;-73
2021/03/25 04:11:38;;;;;;;33.85;20.73;;;;;;;;;;5052453;28;20252;-74
2021/03/25 04:14:13;;;;;;;31.70;18.67;;;;;;;;;;5056527;28;20235;-73
2021/03/25 04:16:41;;;;;;;30.30;17.25;;;;;;;;;;5063621;28;20697;-73
2021/03/25 04:19:09;;;;;;;32.22;19.98;;;;;;;;;;5055802;28;20209;-74
2021/03/25 04:21:37;;;;;;;25.15;16.25;;;;;;;;;;5063136;28;20688;-73
2021/03/25 04:24:05;;;;;;;28.80;16.73;;;;;;;;;;5055153;28;20226;-74
2021/03/25 04:26:38;;;;;;;23.67;17.15;;;;;;;;;;5054138;28;20637;-74
2021/03/25 04:29:06;;;;;;;24.55;17.23;;;;;;;;;;5043931;28;20667;-75
2021/03/25 04:31:32;;;;;;;28.67;16.27;;;;;;;;;;5053905;28;20274;-73
2021/03/25 04:34:00;;;;;;;24.90;16.67;;;;;;;;;;5049943;28;20266;-73
2021/03/25 04:36:27;;;;;;;29.02;17.00;;;;;;;;;;5061987;28;20169;-74
2021/03/25 04:38:53;;;;;;;23.88;15.48;;;;;;;;;;5072551;28;20201;-74
2021/03/25 04:41:20;;;;;;;22.30;15.50;;;;;;;;;;5054644;28;20305;-74
2021/03/25 04:43:46;;;;;;;25.33;16.77;;;;;;;;;;5047841;28;20185;-73
2021/03/25 04:46:24;;;;;;;24.10;15.35;;;;;;;;;;5063840;28;20176;-74
2021/03/25 04:48:50;;;;;;;30.00;17.38;;;;;;;;;;5056502;28;20711;-74
2021/03/25 04:51:17;;;;;;;21.45;14.82;;;;;;;;;;5060640;28;20197;-73
2021/03/25 04:53:49;;;;;;;26.35;17.48;;;;;;;;;;5068287;28;20189;-74
2021/03/25 04:56:17;;;;;;;27.17;17.27;;;;;;;;;;5061873;28;20169;-74
2021/03/25 04:58:54;;;;;;;32.50;17.60;;;;;;;;;;5053736;28;20570;-73
2021/03/25 05:01:25;;;;;;;29.92;17.27;;;;;;;;;;5049900;28;20597;-73
2021/03/25 05:03:55;;;;;;;20.75;16.02;;;;;;;;;;5057809;28;20262;-73
2021/03/25 05:06:24;;;;;;;24.90;15.98;;;;;;;;;;5060776;28;20257;-75
2021/03/25 05:08:53;;;;;;;32.22;14.60;;;;;;;;;;5045194;28;20247;-74
2021/03/25 05:11:20;;;;;;;28.90;16.67;;;;;;;;;;5040775;28;20201;-74
2021/03/25 05:13:47;;;;;;;24.42;14.88;;;;;;;;;;5050796;28;20274;-74
2021/03/25 05:16:18;;;;;;;23.95;16.08;;;;;;;;;;5058921;28;20196;-73
2021/03/25 05:19:03;;;;;;;24.73;16.27;;;;;;;;;;5058506;28;20340;-74
2021/03/25 05:21:40;;;;;;;20.77;14.43;;;;;;;;;;5059461;28;20292;-76
2021/03/25 05:24:19;;;;;;;25.52;17.20;;;;;;;;;;5065922;28;20177;-76
2021/03/25 05:26:48;;;;;;;27.30;15.73;;;;;;;;;;5074249;28;20222;-76
2021/03/25 05:29:15;;;;;;;27.83;16.02;;;;;;;;;;5056260;28;20181;-76
2021/03/25 05:31:42;;;;;;;23.65;16.95;;;;;;;;;;5035372;28;20201;-75
2021/03/25 05:34:08;;;;;;;24.88;19.10;;;;;;;;;;5042378;28;20208;-75
2021/03/25 05:36:35;;;;;;;27.08;15.48;;;;;;;;;;5059550;28;20304;-74
2021/03/25 05:39:01;;;;;;;24.30;15.27;;;;;;;;;;5046935;28;20289;-74
2021/03/25 05:41:33;;;;;;;23.70;15.60;;;;;;;;;;5078220;22;20256;-70
2021/03/25 05:44:08;;;;;;;24.92;16.52;;;;;;;;;;5069798;28;20238;-70
2021/03/25 05:46:48;;;;;;;28.35;18.42;;;;;;;;;;5067430;28;20200;-70
2021/03/25 05:49:30;;;;;;;25.35;15.73;;;;;;;;;;5051523;28;20647;-70
2021/03/25 05:52:07;;;;;;;29.83;17.55;;;;;;;;;;5052757;28;20245;-70
2021/03/25 05:54:33;;;;;;;24.15;16.70;;;;;;;;;;5067256;28;20198;-70
2021/03/25 05:57:02;;;;;;;25.73;20.00;;;;;;;;;;5075888;28;20185;-70
2021/03/25 05:59:29;;;;;;;31.88;18.48;;;;;;;;;;5071593;28;20508;-70
2021/03/25 06:02:03;;;;;;;32.67;20.85;;;;;;;;;;5071165;28;20200;-70
2021/03/25 06:04:33;;;;;;;38.00;22.60;;;;;;;;;;5071316;28;20180;-69
2021/03/25 06:07:17;;;;;;;43.10;26.65;;;;;;;;;;5071132;28;20195;-69
2021/03/25 06:10:01;;;;;;;41.50;28.25;;;;;;;;;;5052223;28;20214;-70
2021/03/25 06:12:36;;;;;;;56.58;33.35;;;;;;;;;;5072241;28;20641;-71
2021/03/25 06:15:09;;;;;;;55.65;34.00;;;;;;;;;;5075935;28;20188;-70
2021/03/25 06:17:41;;;;;;;54.80;33.72;;;;;;;;;;5069864;28;20189;-70
2021/03/25 06:20:23;;;;;;;51.67;36.00;;;;;;;;;;5071195;28;20268;-71
2021/03/25 06:22:56;;;;;;;57.42;36.50;;;;;;;;;;5071534;28;20281;-70
2021/03/25 06:25:35;;;;;;;55.40;35.45;;;;;;;;;;5081826;28;20176;-69
2021/03/25 06:28:01;;;;;;;52.92;35.45;;;;;;;;;;5091403;28;20175;-70
2021/03/25 06:30:35;;;;;;;54.60;34.27;;;;;;;;;;5091533;28;20631;-70
2021/03/25 06:33:07;;;;;;;50.55;34.63;;;;;;;;;;5091219;28;20504;-71
2021/03/25 06:35:42;;;;;;;57.97;36.03;;;;;;;;;;5091593;28;20176;-70
2021/03/25 06:38:08;;;;;;;63.92;37.00;;;;;;;;;;5072376;28;20672;-69
2021/03/25 06:40:36;;;;;;;50.10;34.97;;;;;;;;;;5069863;28;20231;-69
2021/03/25 06:43:10;;;;;;;61.08;38.33;;;;;;;;;;5076494;28;20672;-69
2021/03/25 06:45:44;;;;;;;61.72;36.28;;;;;;;;;;5082258;28;20742;-69
2021/03/25 06:48:12;;;;;;;52.03;34.30;;;;;;;;;;5091473;28;20176;-71
2021/03/25 06:50:41;;;;;;;58.83;42.13;;;;;;;;;;5087214;28;20180;-69
2021/03/25 06:53:25;;;;;;;66.50;37.25;;;;;;;;;;5083047;28;20204;-70
2021/03/25 06:55:59;;;;;;;55.88;36.10;;;;;;;;;;5072894;28;20188;-70
2021/03/25 06:58:38;;;;;;;57.10;39.72;;;;;;;;;;5079157;28;20220;-70
2021/03/25 07:01:11;;;;;;;64.18;38.15;;;;;;;;;;5070258;28;20608;-71
2021/03/25 07:03:38;;;;;;;60.55;38.80;;;;;;;;;;5066775;28;20230;-70
2021/03/25 07:06:05;;;;;;;58.20;36.25;;;;;;;;;;5073689;28;20659;-71
2021/03/25 07:08:32;;;;;;;57.33;36.22;;;;;;;;;;5072779;28;20185;-70
2021/03/25 07:11:02;;;;;;;72.60;39.85;;;;;;;;;;5073624;28;20193;-71
2021/03/25 07:13:33;;;;;;;59.50;39.22;;;;;;;;;;5075954;28;20258;-70
2021/03/25 07:15:59;;;;;;;54.95;37.67;;;;;;;;;;5073637;28;20189;-69
2021/03/25 07:18:32;;;;;;;65.78;39.22;;;;;;;;;;5070789;28;20208;-70
2021/03/25 07:21:16;;;;;;;63.42;36.80;;;;;;;;;;5064089;28;20185;-69
2021/03/25 07:23:44;;;;;;;59.42;39.67;;;;;;;;;;5066349;28;20195;-70
2021/03/25 07:26:18;;;;;;;66.18;40.20;;;;;;;;;;5073738;28;20665;-70
2021/03/25 07:28:56;;;;;;;69.10;40.47;;;;;;;;;;5066014;28;20539;-70
2021/03/25 07:31:27;;;;;;;58.88;41.17;;;;;;;;;;5071266;28;20195;-70
2021/03/25 07:33:54;;;;;;;53.08;38.58;;;;;;;;;;5073731;28;20185;-70
2021/03/25 07:36:19;;;;;;;60.55;41.10;;;;;;;;;;5072062;28;20192;-70
2021/03/25 07:38:45;;;;;;;60.80;38.07;;;;;;;;;;5072732;28;20201;-69
2021/03/25 07:41:11;;;;;;;56.92;38.75;;;;;;;;;;5072745;28;20431;-70
2021/03/25 07:43:58;;;;;;;55.90;38.70;;;;;;;;;;5072639;28;20241;-69
2021/03/25 07:46:27;;;;;;;58.22;37.67;;;;;;;;;;5073207;28;20952;-69
2021/03/25 07:48:57;;;;;;;59.75;39.25;;;;;;;;;;5073534;28;20212;-70
2021/03/25 07:51:23;;;;;;;62.33;41.33;;;;;;;;;;5072632;28;20189;-69
2021/03/25 07:54:08;;;;;;;64.68;42.13;;;;;;;;;;5072977;28;20204;-71
2021/03/25 07:56:34;;;;;;;54.80;38.72;;;;;;;;;;5074344;28;20263;-70
2021/03/25 07:59:00;;;;;;;63.22;40.75;;;;;;;;;;5073245;28;20232;-70
2021/03/25 08:01:26;;;;;;;65.77;40.20;;;;;;;;;;5073524;28;20189;-70
2021/03/25 08:03:52;;;;;;;59.20;39.77;;;;;;;;;;5073853;28;20894;-71
2021/03/25 08:06:28;;;;;;;58.25;39.22;;;;;;;;;;5071613;28;20427;-71
2021/03/25 08:09:06;;;;;;;59.60;38.90;;;;;;;;;;5071963;28;20506;-71
2021/03/25 08:11:33;;;;;;;74.32;39.85;;;;;;;;;;5065936;28;20802;-71
2021/03/25 08:14:01;;;;;;;65.35;38.67;;;;;;;;;;5072702;28;20184;-71
2021/03/25 08:16:29;;;;;;;62.95;41.50;;;;;;;;;;5072251;28;20187;-69
2021/03/25 08:19:17;;;;;;;62.40;39.72;;;;;;;;;;5073213;28;20293;-71
2021/03/25 08:21:53;;;;;;;72.03;39.67;;;;;;;;;;5066708;28;20685;-71
2021/03/25 08:24:28;;;;;;;63.70;39.13;;;;;;;;;;5073292;28;20176;-71
2021/03/25 08:27:13;;;;;;;61.17;40.10;;;;;;;;;;5071479;28;20294;-71
2021/03/25 08:29:52;;;;;;;69.13;39.42;;;;;;;;;;5072572;28;20194;-71
2021/03/25 08:32:30;;;;;;;52.88;37.33;;;;;;;;;;5072237;28;20200;-71
2021/03/25 08:35:08;;;;;;;61.50;40.58;;;;;;;;;;5065662;28;20192;-71
2021/03/25 08:37:43;;;;;;;57.58;39.63;;;;;;;;;;5071527;28;20184;-71
2021/03/25 08:40:22;;;;;;;52.83;38.35;;;;;;;;;;5068930;28;20181;-71
2021/03/25 08:42:50;;;;;;;53.97;38.22;;;;;;;;;;5063824;28;20226;-70
2021/03/25 08:45:22;;;;;;;63.40;39.10;;;;;;;;;;5080292;28;20183;-70
2021/03/25 08:47:54;;;;;;;59.08;41.13;;;;;;;;;;5072010;28;20177;-71
2021/03/25 08:50:29;;;;;;;52.30;39.72;;;;;;;;;;5073076;28;20204;-71
2021/03/25 08:52:56;;;;;;;52.67;38.88;;;;;;;;;;5064895;28;20207;-71
2021/03/25 08:55:22;;;;;;;55.40;38.10;;;;;;;;;;5072581;28;20180;-69
2021/03/25 08:57:50;;;;;;;53.57;36.30;;;;;;;;;;5072124;28;20230;-73
2021/03/25 09:00:18;;;;;;;56.53;32.53;;;;;;;;;;5069048;28;20545;-69
2021/03/25 09:02:48;;;;;;;51.42;33.72;;;;;;;;;;5068193;28;20253;-70
2021/03/25 09:05:20;;;;;;;45.30;32.28;;;;;;;;;;5071705;28;20169;-71
2021/03/25 09:07:47;;;;;;;47.40;33.75;;;;;;;;;;5065942;28;20648;-71
2021/03/25 09:10:26;;;;;;;49.45;32.85;;;;;;;;;;5071682;28;20180;-71
2021/03/25 09:12:53;;;;;;;49.22;32.10;;;;;;;;;;5064510;28;20205;-69
2021/03/25 09:15:20;;;;;;;48.60;31.25;;;;;;;;;;5070540;28;20192;-70
2021/03/25 09:17:55;;;;;;;47.72;33.80;;;;;;;;;;5072262;28;20172;-70
2021/03/25 09:20:29;;;;;;;49.75;31.42;;;;;;;;;;5071253;28;20515;-71
2021/03/25 09:22:58;;;;;;;45.53;30.02;;;;;;;;;;5071824;28;20271;-70
2021/03/25 09:25:44;;;;;;;45.90;30.75;;;;;;;;;;5068990;28;20188;-70
2021/03/25 09:28:16;;;;;;;48.95;30.85;;;;;;;;;;5071713;28;20193;-71
2021/03/25 09:30:46;;;;;;;44.95;32.00;;;;;;;;;;5071320;28;20188;-71
2021/03/25 09:33:30;;;;;;;49.78;31.40;;;;;;;;;;5071711;28;20254;-71
2021/03/25 09:35:56;;;;;;;42.47;31.30;;;;;;;;;;5065531;28;20619;-70
2021/03/25 09:38:32;;;;;;;47.57;32.80;;;;;;;;;;5056017;28;20240;-70
2021/03/25 09:41:02;;;;;;;42.60;30.25;;;;;;;;;;5052047;28;20418;-71
2021/03/25 09:43:32;;;;;;;46.60;30.45;;;;;;;;;;5066885;28;20209;-71
2021/03/25 09:46:18;;;;;;;41.20;27.98;;;;;;;;;;5071860;28;20181;-71
2021/03/25 09:48:44;;;;;;;41.97;31.38;;;;;;;;;;5071147;28;20263;-70
2021/03/25 09:51:24;;;;;;;45.90;33.50;;;;;;;;;;5069944;28;20496;-70
2021/03/25 09:53:54;;;;;;;43.20;28.23;;;;;;;;;;5070040;28;20436;-70
2021/03/25 09:56:29;;;;;;;45.90;30.42;;;;;;;;;;5082655;28;20183;-71
2021/03/25 09:58:55;;;;;;;42.60;28.88;;;;;;;;;;5067815;28;20297;-70
2021/03/25 10:01:40;;;;;;;36.40;28.67;;;;;;;;;;5071714;28;20199;-70
2021/03/25 10:04:25;;;;;;;33.92;27.63;;;;;;;;;;5070992;28;20177;-70
2021/03/25 10:06:55;;;;;;;32.00;26.08;;;;;;;;;;5051727;28;20268;-70
2021/03/25 10:09:40;;;;;;;39.08;25.33;;;;;;;;;;5069941;28;20189;-70
2021/03/25 10:12:10;;;;;;;43.95;27.88;;;;;;;;;;5070264;28;20200;-69
2021/03/25 10:14:43;;;;;;;43.22;29.02;;;;;;;;;;5077934;28;20180;-70
2021/03/25 10:17:09;;;;;;;42.00;29.85;;;;;;;;;;5071592;28;20176;-70
2021/03/25 10:19:48;;;;;;;49.35;36.38;;;;;;;;;;5070799;28;20261;-70
2021/03/25 10:22:20;;;;;;;49.15;35.28;;;;;;;;;;5068761;28;20261;-70
2021/03/25 10:24:52;;;;;;;39.47;29.98;;;;;;;;;;5062875;28;20202;-70
2021/03/25 10:27:21;;;;;;;39.58;30.58;;;;;;;;;;5070910;28;20173;-70
2021/03/25 10:29:48;;;;;;;42.33;28.67;;;;;;;;;;5070036;28;20212;-71
2021/03/25 10:32:20;;;;;;;40.08;31.45;;;;;;;;;;5070919;28;20198;-70
2021/03/25 10:34:46;;;;;;;39.20;28.73;;;;;;;;;;5070728;28;20190;-71
2021/03/25 10:37:31;;;;;;;37.25;27.92;;;;;;;;;;5074652;28;20679;-70
2021/03/25 10:40:03;;;;;;;32.30;25.60;;;;;;;;;;5067647;28;20596;-70
2021/03/25 10:42:40;;;;;;;42.03;27.25;;;;;;;;;;5073356;28;20708;-70
2021/03/25 10:45:15;;;;;;;37.65;26.73;;;;;;;;;;5073658;28;20192;-70
2021/03/25 10:47:45;;;;;;;37.42;28.00;;;;;;;;;;5075062;28;20181;-70
2021/03/25 10:50:18;;;;;;;34.15;25.45;;;;;;;;;;5074376;28;20185;-70
2021/03/25 10:52:45;;;;;;;42.83;29.03;;;;;;;;;;5066354;28;20267;-70
2021/03/25 10:55:26;;;;;;;41.63;28.40;;;;;;;;;;5077828;28;20424;-70
2021/03/25 10:57:53;;;;;;;43.05;30.65;;;;;;;;;;5079530;28;20955;-70
2021/03/25 11:00:26;;;;;;;39.70;30.20;;;;;;;;;;5074191;28;20274;-70
2021/03/25 11:02:52;;;;;;;44.10;30.10;;;;;;;;;;5074493;28;20909;-70
2021/03/25 11:05:19;;;;;;;45.73;32.20;;;;;;;;;;5069902;28;20425;-69
2021/03/25 11:07:50;;;;;;;47.47;32.17;;;;;;;;;;5074666;28;20472;-70
2021/03/25 11:10:36;;;;;;;34.83;28.67;;;;;;;;;;5074721;28;20435;-71
2021/03/25 11:13:02;;;;;;;39.73;30.30;;;;;;;;;;5057189;28;20463;-71
2021/03/25 11:15:40;;;;;;;46.83;32.30;;;;;;;;;;5073011;28;20991;-71
2021/03/25 11:18:18;;;;;;;44.67;30.70;;;;;;;;;;5074503;28;20469;-71
2021/03/25 11:20:44;;;;;;;36.07;26.77;;;;;;;;;;5073805;28;20773;-71
2021/03/25 11:23:13;;;;;;;33.27;25.50;;;;;;;;;;5074245;28;20433;-71
2021/03/25 11:25:39;;;;;;;35.00;26.30;;;;;;;;;;5074740;28;20481;-71
2021/03/25 11:28:12;;;;;;;33.80;25.40;;;;;;;;;;5074230;28;20479;-72
2021/03/25 11:30:40;;;;;;;28.13;22.67;;;;;;;;;;5071567;28;21264;-71
2021/03/25 11:33:21;;;;;;;25.53;22.00;;;;;;;;;;5065610;28;20434;-71
2021/03/25 11:35:48;;;;;;;21.03;18.77;;;;;;;;;;5071579;28;20399;-71
2021/03/25 11:38:17;;;;;;;29.53;22.03;;;;;;;;;;5054306;28;20470;-71
2021/03/25 11:40:43;;;;;;;26.67;22.53;;;;;;;;;;5064405;28;20406;-71
2021/03/25 11:43:14;;;;;;;21.10;18.90;;;;;;;;;;5071199;28;20512;-71
2021/03/25 11:45:51;;;;;;;27.07;19.57;;;;;;;;;;5082376;28;20410;-74
2021/03/25 11:48:16;;;;;;;20.20;16.27;;;;;;;;;;5054843;28;20419;-71
2021/03/25 11:50:43;;;;;;;20.93;18.43;;;;;;;;;;5072525;28;20458;-72
2021/03/25 11:53:25;;;;;;;26.60;17.80;;;;;;;;;;5073284;28;20464;-71
2021/03/25 11:55:53;;;;;;;19.70;16.20;;;;;;;;;;5074029;28;20421;-71
2021/03/25 11:58:20;;;;;;;21.10;18.90;;;;;;;;;;5072936;28;20962;-72
2021/03/25 12:00:52;;;;;;;22.87;20.03;;;;;;;;;;5073703;28;20761;-72
2021/03/25 12:03:24;;;;;;;22.27;19.97;;;;;;;;;;5073154;28;20448;-71
2021/03/25 12:05:50;;;;;;;22.27;19.40;;;;;;;;;;5073587;28;20408;-72
2021/03/25 12:08:16;;;;;;;21.17;18.93;;;;;;;;;;5073944;28;20451;-72
2021/03/25 12:10:42;;;;;;;25.07;19.27;;;;;;;;;;5073488;28;20400;-72
2021/03/25 12:13:09;;;;;;;22.93;19.17;;;;;;;;;;5078718;28;20432;-72
2021/03/25 12:15:36;;;;;;;25.80;17.90;;;;;;;;;;5081307;28;20471;-71
2021/03/25 12:18:05;;;;;;;20.20;17.47;;;;;;;;;;5073464;28;20557;-71
2021/03/25 12:20:34;;;;;;;18.13;14.93;;;;;;;;;;5073307;28;20904;-72
2021/03/25 12:23:02;;;;;;;21.23;17.27;;;;;;;;;;5067468;28;20462;-71
2021/03/25 12:25:29;;;;;;;21.03;16.63;;;;;;;;;;5073390;28;20407;-71
2021/03/25 12:27:54;;;;;;;21.23;17.27;;;;;;;;;;5063772;28;20415;-72
2021/03/25 12:30:21;;;;;;;21.80;16.10;;;;;;;;;;5057752;28;20803;-71
2021/03/25 12:32:47;;;;;;;21.20;15.03;;;;;;;;;;5052705;28;20420;-72
2021/03/25 12:35:14;;;;;;;18.30;15.93;;;;;;;;;;5053389;28;20837;-72
2021/03/25 12:37:41;;;;;;;16.00;14.40;;;;;;;;;;5053363;28;20999;-71
2021/03/25 12:40:08;;;;;;;18.90;14.47;;;;;;;;;;5062350;28;20579;-72
2021/03/25 12:42:34;;;;;;;22.60;15.10;;;;;;;;;;5074550;28;20840;-72
2021/03/25 12:45:00;;;;;;;18.93;14.53;;;;;;;;;;5084866;28;20442;-71
2021/03/25 12:47:26;;;;;;;20.00;12.73;;;;;;;;;;5072904;28;20791;-72
2021/03/25 12:49:52;;;;;;;18.40;14.97;;;;;;;;;;5073144;28;20853;-70
2021/03/25 12:52:18;;;;;;;18.43;13.83;;;;;;;;;;5071756;28;20458;-71
2021/03/25 12:54:46;;;;;;;15.80;12.37;;;;;;;;;;5072784;28;20503;-71
2021/03/25 12:57:12;;;;;;;16.93;13.30;;;;;;;;;;5072265;28;20419;-73
2021/03/25 12:59:42;;;;;;;16.23;14.53;;;;;;;;;;5072529;28;20462;-72
2021/03/25 13:02:09;;;;;;;19.67;14.60;;;;;;;;;;5071580;28;20541;-72
2021/03/25 13:04:35;;;;;;;17.80;13.70;;;;;;;;;;5072785;28;20494;-72
2021/03/25 13:07:01;;;;;;;17.20;15.43;;;;;;;;;;5072710;28;20948;-71
2021/03/25 13:09:26;;;;;;;16.03;13.80;;;;;;;;;;5072524;28;20904;-72
2021/03/25 13:11:52;;;;;;;14.50;12.63;;;;;;;;;;5071313;28;20457;-72
2021/03/25 13:14:18;;;;;;;14.40;13.00;;;;;;;;;;5080676;28;20436;-71
2021/03/25 13:16:44;;;;;;;17.50;13.17;;;;;;;;;;5092381;28;20427;-71
2021/03/25 13:19:11;;;;;;;18.67;13.10;;;;;;;;;;5088162;28;20948;-71
2021/03/25 13:21:36;;;;;;;17.70;13.13;;;;;;;;;;5071832;28;20445;-71
2021/03/25 13:24:02;;;;;;;16.70;12.73;;;;;;;;;;5071507;28;20821;-72
2021/03/25 13:26:28;;;;;;;16.83;13.50;;;;;;;;;;5072235;28;20834;-71
2021/03/25 13:28:55;;;;;;;18.90;13.27;;;;;;;;;;5071863;28;20433;-71
2021/03/25 13:31:20;;;;;;;17.00;12.10;;;;;;;;;;5071886;28;20771;-71
2021/03/25 13:33:46;;;;;;;13.73;11.60;;;;;;;;;;5071683;28;20495;-72
2021/03/25 13:36:12;;;;;;;15.13;12.47;;;;;;;;;;5072105;28;20490;-72
2021/03/25 13:38:39;;;;;;;17.77;13.40;;;;;;;;;;5071479;28;20988;-72
2021/03/25 13:41:05;;;;;;;14.53;13.03;;;;;;;;;;5071738;28;20389;-71
2021/03/25 13:43:32;;;;;;;16.47;13.67;;;;;;;;;;5078363;28;20442;-71
2021/03/25 13:45:59;;;;;;;19.30;13.67;;;;;;;;;;5071707;28;20432;-71
2021/03/25 13:48:26;;;;;;;16.77;12.80;;;;;;;;;;5064004;28;20827;-72
2021/03/25 13:50:52;;;;;;;16.97;11.87;;;;;;;;;;5071815;28;20426;-71
2021/03/25 13:53:18;;;;;;;14.73;13.00;;;;;;;;;;5070151;28;20865;-72
2021/03/25 13:55:45;;;;;;;17.57;13.27;;;;;;;;;;5071967;28;20413;-71
2021/03/25 13:58:12;;;;;;;13.03;11.57;;;;;;;;;;5071118;28;20436;-72
2021/03/25 14:00:39;;;;;;;14.23;12.90;;;;;;;;;;5071643;28;20467;-71
2021/03/25 14:03:06;;;;;;;14.10;12.70;;;;;;;;;;5068464;28;20452;-72
2021/03/25 14:05:32;;;;;;;16.70;11.80;;;;;;;;;;5071632;28;20408;-72
2021/03/25 14:07:59;;;;;;;12.97;11.67;;;;;;;;;;5069749;28;20431;-71
2021/03/25 14:10:26;;;;;;;12.30;11.07;;;;;;;;;;5071047;28;20927;-72
2021/03/25 14:12:53;;;;;;;12.77;10.63;;;;;;;;;;5070802;28;20434;-72
2021/03/25 14:15:21;;;;;;;15.63;11.13;;;;;;;;;;5079864;28;20411;-71
2021/03/25 14:17:47;;;;;;;15.83;12.30;;;;;;;;;;5071427;28;20469;-71
2021/03/25 14:20:14;;;;;;;14.50;12.13;;;;;;;;;;5071052;28;20981;-71
2021/03/25 14:22:41;;;;;;;16.00;12.03;;;;;;;;;;5071191;28;20427;-71
2021/03/25 14:25:08;;;;;;;14.50;12.40;;;;;;;;;;5070921;28;20438;-71
2021/03/25 14:27:34;;;;;;;12.90;11.70;;;;;;;;;;5071399;28;20410;-72
2021/03/25 14:30:00;;;;;;;12.13;10.43;;;;;;;;;;5071106;28;20421;-72
2021/03/25 14:32:26;;;;;;;11.77;10.60;;;;;;;;;;5071088;28;20445;-71
2021/03/25 14:34:53;;;;;;;12.93;11.63;;;;;;;;;;5070689;28;20428;-70